createdAt,value
2018-05-04T00:00:50.684Z,1014.98
2018-05-04T00:01:52.063Z,1014.98
2018-05-04T00:02:53.448Z,1014.96
2018-05-04T00:03:54.828Z,1015.01
2018-05-04T00:04:56.204Z,1014.98
2018-05-04T00:05:57.596Z,1015.02
2018-05-04T00:06:58.979Z,1015.02
2018-05-04T00:08:00.359Z,1015.01
2018-05-04T00:09:01.757Z,1014.98
2018-05-04T00:10:03.138Z,1015.01
2018-05-04T00:11:04.518Z,1015.02
2018-05-04T00:12:05.903Z,1014.98
2018-05-04T00:13:07.279Z,1015.00
2018-05-04T00:14:09.247Z,1015.01
2018-05-04T00:15:10.614Z,1015.00
2018-05-04T00:16:11.993Z,1015.02
2018-05-04T00:17:13.379Z,1015.02
2018-05-04T00:18:14.751Z,1015.02
2018-05-04T00:19:16.131Z,1015.08
2018-05-04T00:20:18.460Z,1015.10
2018-05-04T00:21:19.840Z,1015.09
2018-05-04T00:22:21.210Z,1015.11
2018-05-04T00:23:22.586Z,1015.15
2018-05-04T00:24:23.980Z,1015.15
2018-05-04T00:25:25.360Z,1015.12
2018-05-04T00:26:26.747Z,1015.13
2018-05-04T00:27:28.134Z,1015.17
2018-05-04T00:28:29.505Z,1015.14
2018-05-04T00:29:30.878Z,1015.16
2018-05-04T00:30:32.276Z,1015.16
2018-05-04T00:31:33.654Z,1015.21
2018-05-04T00:32:35.028Z,1015.21
2018-05-04T00:33:36.421Z,1015.20
2018-05-04T00:34:37.812Z,1015.22
2018-05-04T00:35:39.169Z,1015.28
2018-05-04T00:36:40.553Z,1015.23
2018-05-04T00:37:41.928Z,1015.26
2018-05-04T00:38:43.304Z,1015.27
2018-05-04T00:39:44.683Z,1015.32
2018-05-04T00:40:46.058Z,1015.29
2018-05-04T00:41:47.431Z,1015.31
2018-05-04T00:42:48.817Z,1015.34
2018-05-04T00:43:50.181Z,1015.32
2018-05-04T00:44:51.560Z,1015.33
2018-05-04T00:45:52.947Z,1015.36
2018-05-04T00:46:54.325Z,1015.40
2018-05-04T00:47:55.719Z,1015.35
2018-05-04T00:48:57.090Z,1015.40
2018-05-04T00:49:58.473Z,1015.40
2018-05-04T00:50:59.853Z,1015.39
2018-05-04T00:52:01.234Z,1015.41
2018-05-04T00:53:02.614Z,1015.39
2018-05-04T00:54:03.983Z,1015.41
2018-05-04T00:55:05.372Z,1015.43
2018-05-04T00:56:06.742Z,1015.44
2018-05-04T00:57:08.132Z,1015.49
2018-05-04T00:58:09.511Z,1015.51
2018-05-04T00:59:10.883Z,1015.53
2018-05-04T01:00:12.256Z,1015.57
2018-05-04T01:01:13.632Z,1015.56
2018-05-04T01:02:15.014Z,1015.54
2018-05-04T01:03:16.394Z,1015.55
2018-05-04T01:04:17.767Z,1015.51
2018-05-04T01:05:19.156Z,1015.57
2018-05-04T01:06:20.529Z,1015.52
2018-05-04T01:07:21.911Z,1015.58
2018-05-04T01:08:23.301Z,1015.58
2018-05-04T01:09:24.679Z,1015.59
2018-05-04T01:10:26.069Z,1015.61
2018-05-04T01:11:27.443Z,1015.63
2018-05-04T01:12:28.821Z,1015.62
2018-05-04T01:13:30.197Z,1015.61
2018-05-04T01:14:31.576Z,1015.58
2018-05-04T01:15:32.960Z,1015.61
2018-05-04T01:16:34.336Z,1015.59
2018-05-04T01:17:35.711Z,1015.61
2018-05-04T01:18:37.092Z,1015.62
2018-05-04T01:19:38.476Z,1015.62
2018-05-04T01:20:39.850Z,1015.66
2018-05-04T01:21:41.222Z,1015.64
2018-05-04T01:22:42.602Z,1015.64
2018-05-04T01:23:44.908Z,1015.69
2018-05-04T01:24:46.294Z,1015.73
2018-05-04T01:25:47.668Z,1015.68
2018-05-04T01:26:49.055Z,1015.69
2018-05-04T01:27:50.426Z,1015.68
2018-05-04T01:28:51.794Z,1015.67
2018-05-04T01:29:53.199Z,1015.67
2018-05-04T01:30:54.559Z,1015.68
2018-05-04T01:31:55.932Z,1015.71
2018-05-04T01:32:57.302Z,1015.68
2018-05-04T01:33:58.748Z,1015.75
2018-05-04T01:35:00.056Z,1015.77
2018-05-04T01:36:01.445Z,1015.74
2018-05-04T01:37:02.814Z,1015.75
2018-05-04T01:38:04.210Z,1015.77
2018-05-04T01:39:05.582Z,1015.78
2018-05-04T01:40:06.951Z,1015.80
2018-05-04T01:41:08.334Z,1015.76
2018-05-04T01:42:09.717Z,1015.76
2018-05-04T01:43:11.099Z,1015.82
2018-05-04T01:44:12.480Z,1015.83
2018-05-04T01:45:13.860Z,1015.84
2018-05-04T01:46:15.248Z,1015.86
2018-05-04T01:47:16.617Z,1015.84
2018-05-04T01:48:17.998Z,1015.85
2018-05-04T01:49:19.372Z,1015.85
2018-05-04T01:50:20.752Z,1015.84
2018-05-04T01:51:22.132Z,1015.86
2018-05-04T01:52:23.511Z,1015.88
2018-05-04T01:53:24.892Z,1015.90
2018-05-04T01:54:26.275Z,1015.88
2018-05-04T01:55:27.640Z,1015.91
2018-05-04T01:56:29.020Z,1015.90
2018-05-04T01:57:30.451Z,1015.91
2018-05-04T01:58:31.769Z,1015.91
2018-05-04T01:59:33.157Z,1015.97
2018-05-04T02:00:34.532Z,1016.00
2018-05-04T02:01:35.913Z,1016.03
2018-05-04T02:02:37.295Z,1016.04
2018-05-04T02:03:38.671Z,1016.08
2018-05-04T02:04:40.057Z,1016.02
2018-05-04T02:05:41.425Z,1015.98
2018-05-04T02:06:42.812Z,1016.03
2018-05-04T02:07:44.249Z,1016.01
2018-05-04T02:08:45.562Z,1016.02
2018-05-04T02:09:46.931Z,1016.06
2018-05-04T02:10:48.315Z,1016.06
2018-05-04T02:11:49.678Z,1016.07
2018-05-04T02:12:51.061Z,1016.05
2018-05-04T02:13:52.432Z,1016.09
2018-05-04T02:14:53.812Z,1016.09
2018-05-04T02:15:55.191Z,1016.09
2018-05-04T02:16:56.569Z,1016.11
2018-05-04T02:17:57.960Z,1016.05
2018-05-04T02:18:59.330Z,1016.05
2018-05-04T02:20:00.716Z,1016.05
2018-05-04T02:21:02.096Z,1016.04
2018-05-04T02:22:03.475Z,1016.01
2018-05-04T02:23:04.863Z,1016.07
2018-05-04T02:24:06.237Z,1016.09
2018-05-04T02:25:07.609Z,1016.10
2018-05-04T02:26:08.979Z,1016.12
2018-05-04T02:27:10.365Z,1016.09
2018-05-04T02:28:11.743Z,1016.12
2018-05-04T02:29:13.111Z,1016.09
2018-05-04T02:30:14.498Z,1016.12
2018-05-04T02:31:15.879Z,1016.16
2018-05-04T02:32:17.255Z,1016.13
2018-05-04T02:33:18.620Z,1016.12
2018-05-04T02:34:20.002Z,1016.16
2018-05-04T02:35:21.395Z,1016.13
2018-05-04T02:36:22.768Z,1016.15
2018-05-04T02:37:24.156Z,1016.19
2018-05-04T02:38:25.544Z,1016.16
2018-05-04T02:39:26.908Z,1016.17
2018-05-04T02:40:28.292Z,1016.20
2018-05-04T02:41:29.676Z,1016.19
2018-05-04T02:42:31.041Z,1016.22
2018-05-04T02:43:32.443Z,1016.21
2018-05-04T02:44:33.818Z,1016.25
2018-05-04T02:45:35.193Z,1016.27
2018-05-04T02:46:36.563Z,1016.31
2018-05-04T02:47:37.950Z,1016.24
2018-05-04T02:48:39.323Z,1016.26
2018-05-04T02:49:40.715Z,1016.24
2018-05-04T02:50:42.076Z,1016.27
2018-05-04T02:51:43.458Z,1016.21
2018-05-04T02:52:44.837Z,1016.21
2018-05-04T02:53:46.212Z,1016.19
2018-05-04T02:54:47.594Z,1016.23
2018-05-04T02:55:48.966Z,1016.24
2018-05-04T02:56:50.343Z,1016.21
2018-05-04T02:57:51.725Z,1016.24
2018-05-04T02:58:53.094Z,1016.21
2018-05-04T02:59:54.471Z,1016.19
2018-05-04T03:00:55.857Z,1016.21
2018-05-04T03:01:57.221Z,1016.22
2018-05-04T03:02:58.605Z,1016.22
2018-05-04T03:03:59.977Z,1016.22
2018-05-04T03:05:01.358Z,1016.15
2018-05-04T03:06:02.731Z,1016.18
2018-05-04T03:07:04.122Z,1016.22
2018-05-04T03:08:05.500Z,1016.15
2018-05-04T03:09:06.876Z,1016.16
2018-05-04T03:10:08.272Z,1016.17
2018-05-04T03:11:09.653Z,1016.16
2018-05-04T03:12:11.018Z,1016.17
2018-05-04T03:13:12.408Z,1016.16
2018-05-04T03:14:13.779Z,1016.20
2018-05-04T03:15:15.157Z,1016.21
2018-05-04T03:16:16.543Z,1016.22
2018-05-04T03:17:17.907Z,1016.19
2018-05-04T03:18:19.295Z,1016.20
2018-05-04T03:19:20.670Z,1016.18
2018-05-04T03:20:22.043Z,1016.22
2018-05-04T03:21:23.417Z,1016.18
2018-05-04T03:22:24.788Z,1016.21
2018-05-04T03:23:26.175Z,1016.23
2018-05-04T03:24:27.547Z,1016.24
2018-05-04T03:25:28.925Z,1016.28
2018-05-04T03:26:30.306Z,1016.28
2018-05-04T03:27:31.679Z,1016.24
2018-05-04T03:28:33.062Z,1016.26
2018-05-04T03:29:34.444Z,1016.20
2018-05-04T03:30:35.826Z,1016.24
2018-05-04T03:31:37.196Z,1016.21
2018-05-04T03:32:38.577Z,1016.25
2018-05-04T03:33:39.956Z,1016.23
2018-05-04T03:34:41.342Z,1016.18
2018-05-04T03:35:42.721Z,1016.20
2018-05-04T03:36:44.098Z,1016.21
2018-05-04T03:37:45.466Z,1016.17
2018-05-04T03:38:46.852Z,1016.23
2018-05-04T03:39:48.238Z,1016.24
2018-05-04T03:40:49.608Z,1016.25
2018-05-04T03:41:50.994Z,1016.27
2018-05-04T03:42:52.379Z,1016.28
2018-05-04T03:43:53.748Z,1016.25
2018-05-04T03:44:55.137Z,1016.30
2018-05-04T03:45:56.518Z,1016.30
2018-05-04T03:46:57.898Z,1016.28
2018-05-04T03:47:59.282Z,1016.33
2018-05-04T03:49:00.674Z,1016.33
2018-05-04T03:50:02.039Z,1016.34
2018-05-04T03:51:03.425Z,1016.32
2018-05-04T03:52:04.827Z,1016.33
2018-05-04T03:53:06.161Z,1016.34
2018-05-04T03:54:07.527Z,1016.34
2018-05-04T03:55:08.907Z,1016.37
2018-05-04T03:56:10.288Z,1016.36
2018-05-04T03:57:11.669Z,1016.35
2018-05-04T03:58:13.049Z,1016.32
2018-05-04T03:59:14.427Z,1016.34
2018-05-04T04:00:15.811Z,1016.34
2018-05-04T04:01:17.199Z,1016.30
2018-05-04T04:02:18.584Z,1016.30
2018-05-04T04:03:19.960Z,1016.28
2018-05-04T04:04:21.342Z,1016.28
2018-05-04T04:05:22.726Z,1016.26
2018-05-04T04:06:24.098Z,1016.30
2018-05-04T04:07:25.482Z,1016.31
2018-05-04T04:08:26.886Z,1016.32
2018-05-04T04:09:28.272Z,1016.32
2018-05-04T04:10:29.664Z,1016.37
2018-05-04T04:11:31.050Z,1016.38
2018-05-04T04:12:32.448Z,1016.31
2018-05-04T04:13:33.817Z,1016.37
2018-05-04T04:14:35.192Z,1016.36
2018-05-04T04:15:36.564Z,1016.39
2018-05-04T04:16:37.959Z,1016.37
2018-05-04T04:17:39.349Z,1016.39
2018-05-04T04:18:40.730Z,1016.39
2018-05-04T04:19:42.129Z,1016.45
2018-05-04T04:20:43.522Z,1016.42
2018-05-04T04:21:44.893Z,1016.43
2018-05-04T04:22:46.270Z,1016.42
2018-05-04T04:23:47.653Z,1016.45
2018-05-04T04:24:49.922Z,1016.48
2018-05-04T04:25:51.336Z,1016.46
2018-05-04T04:26:52.741Z,1016.43
2018-05-04T04:27:54.127Z,1016.43
2018-05-04T04:28:55.517Z,1016.44
2018-05-04T04:29:56.893Z,1016.41
2018-05-04T04:30:58.277Z,1016.45
2018-05-04T04:31:59.671Z,1016.47
2018-05-04T04:33:01.006Z,1016.53
2018-05-04T04:34:02.394Z,1016.54
2018-05-04T04:35:03.789Z,1016.57
2018-05-04T04:36:05.174Z,1016.58
2018-05-04T04:37:06.566Z,1016.53
2018-05-04T04:38:07.937Z,1016.54
2018-05-04T04:39:09.329Z,1016.52
2018-05-04T04:40:10.704Z,1016.52
2018-05-04T04:41:12.081Z,1016.51
2018-05-04T04:42:13.473Z,1016.53
2018-05-04T04:43:14.853Z,1016.57
2018-05-04T04:44:16.223Z,1016.57
2018-05-04T04:45:17.618Z,1016.60
2018-05-04T04:46:19.004Z,1016.61
2018-05-04T04:47:20.375Z,1016.56
2018-05-04T04:48:21.772Z,1016.56
2018-05-04T04:49:23.154Z,1016.55
2018-05-04T04:50:24.540Z,1016.62
2018-05-04T04:51:25.922Z,1016.63
2018-05-04T04:52:27.311Z,1016.60
2018-05-04T04:53:28.698Z,1016.62
2018-05-04T04:54:30.082Z,1016.63
2018-05-04T04:55:31.451Z,1016.61
2018-05-04T04:56:32.834Z,1016.65
2018-05-04T04:57:34.241Z,1016.63
2018-05-04T04:58:35.608Z,1016.65
2018-05-04T04:59:37.008Z,1016.63
2018-05-04T05:00:38.387Z,1016.64
2018-05-04T05:01:39.764Z,1016.66
2018-05-04T05:02:41.149Z,1016.64
2018-05-04T05:03:42.535Z,1016.61
2018-05-04T05:04:43.904Z,1016.61
2018-05-04T05:05:45.290Z,1016.65
2018-05-04T05:06:46.683Z,1016.66
2018-05-04T05:07:48.075Z,1016.63
2018-05-04T05:08:49.465Z,1016.69
2018-05-04T05:09:50.845Z,1016.63
2018-05-04T05:10:52.235Z,1016.54
2018-05-04T05:11:53.619Z,1016.54
2018-05-04T05:12:55.003Z,1016.54
2018-05-04T05:13:56.385Z,1016.55
2018-05-04T05:14:57.769Z,1016.55
2018-05-04T05:15:59.159Z,1016.57
2018-05-04T05:17:00.549Z,1016.56
2018-05-04T05:18:01.940Z,1016.56
2018-05-04T05:19:03.322Z,1016.61
2018-05-04T05:20:04.725Z,1016.62
2018-05-04T05:21:06.106Z,1016.65
2018-05-04T05:22:07.494Z,1016.70
2018-05-04T05:23:08.869Z,1016.64
2018-05-04T05:24:10.260Z,1016.65
2018-05-04T05:25:11.641Z,1016.68
2018-05-04T05:26:13.032Z,1016.63
2018-05-04T05:27:14.406Z,1016.63
2018-05-04T05:28:15.802Z,1016.64
2018-05-04T05:29:17.186Z,1016.61
2018-05-04T05:30:18.564Z,1016.61
2018-05-04T05:31:19.956Z,1016.58
2018-05-04T05:32:21.337Z,1016.57
2018-05-04T05:33:22.729Z,1016.59
2018-05-04T05:34:24.114Z,1016.59
2018-05-04T05:35:25.492Z,1016.61
2018-05-04T05:36:26.876Z,1016.64
2018-05-04T05:37:28.271Z,1016.64
2018-05-04T05:38:29.651Z,1016.63
2018-05-04T05:39:31.041Z,1016.69
2018-05-04T05:40:32.449Z,1016.70
2018-05-04T05:41:33.825Z,1016.71
2018-05-04T05:42:35.227Z,1016.65
2018-05-04T05:43:36.604Z,1016.67
2018-05-04T05:44:37.983Z,1016.66
2018-05-04T05:45:39.369Z,1016.63
2018-05-04T05:46:40.748Z,1016.65
2018-05-04T05:47:42.149Z,1016.65
2018-05-04T05:48:43.530Z,1016.66
2018-05-04T05:49:44.909Z,1016.71
2018-05-04T05:50:46.291Z,1016.72
2018-05-04T05:51:47.694Z,1016.73
2018-05-04T05:52:49.075Z,1016.76
2018-05-04T05:53:50.460Z,1016.75
2018-05-04T05:54:51.846Z,1016.78
2018-05-04T05:55:53.905Z,1016.82
2018-05-04T05:56:55.290Z,1016.81
2018-05-04T05:57:56.705Z,1016.83
2018-05-04T05:58:58.086Z,1016.78
2018-05-04T05:59:59.484Z,1016.79
2018-05-04T06:01:00.873Z,1016.76
2018-05-04T06:02:02.275Z,1016.77
2018-05-04T06:03:03.662Z,1016.80
2018-05-04T06:04:05.052Z,1016.85
2018-05-04T06:05:06.448Z,1016.82
2018-05-04T06:06:07.831Z,1016.89
2018-05-04T06:07:09.226Z,1016.87
2018-05-04T06:08:10.617Z,1016.88
2018-05-04T06:09:12.024Z,1016.90
2018-05-04T06:10:13.387Z,1016.85
2018-05-04T06:11:14.771Z,1016.90
2018-05-04T06:12:16.167Z,1016.84
2018-05-04T06:13:17.563Z,1016.82
2018-05-04T06:14:18.945Z,1016.81
2018-05-04T06:15:20.331Z,1016.76
2018-05-04T06:16:21.731Z,1016.78
2018-05-04T06:17:23.123Z,1016.81
2018-05-04T06:18:24.499Z,1016.78
2018-05-04T06:19:25.902Z,1016.79
2018-05-04T06:20:27.291Z,1016.82
2018-05-04T06:21:28.682Z,1016.87
2018-05-04T06:22:30.076Z,1016.92
2018-05-04T06:23:31.464Z,1016.99
2018-05-04T06:24:32.844Z,1017.04
2018-05-04T06:25:34.245Z,1017.07
2018-05-04T06:26:35.636Z,1017.08
2018-05-04T06:27:37.016Z,1017.13
2018-05-04T06:28:38.403Z,1017.14
2018-05-04T06:29:39.795Z,1017.10
2018-05-04T06:30:41.201Z,1017.13
2018-05-04T06:31:42.578Z,1017.13
2018-05-04T06:32:43.993Z,1017.16
2018-05-04T06:33:45.454Z,1017.18
2018-05-04T06:34:46.779Z,1017.18
2018-05-04T06:35:48.183Z,1017.21
2018-05-04T06:36:49.575Z,1017.24
2018-05-04T06:37:50.963Z,1017.25
2018-05-04T06:38:52.368Z,1017.31
2018-05-04T06:39:53.762Z,1017.34
2018-05-04T06:40:55.167Z,1017.40
2018-05-04T06:41:56.553Z,1017.45
2018-05-04T06:42:57.949Z,1017.39
2018-05-04T06:43:59.355Z,1017.36
2018-05-04T06:45:00.754Z,1017.36
2018-05-04T06:46:02.166Z,1017.41
2018-05-04T06:47:03.554Z,1017.47
2018-05-04T06:48:04.947Z,1017.43
2018-05-04T06:49:06.350Z,1017.47
2018-05-04T06:50:07.746Z,1017.47
2018-05-04T06:51:09.142Z,1017.49
2018-05-04T06:52:10.550Z,1017.48
2018-05-04T06:53:11.982Z,1017.50
2018-05-04T06:54:13.354Z,1017.49
2018-05-04T06:55:14.758Z,1017.47
2018-05-04T06:56:16.173Z,1017.51
2018-05-04T06:57:17.582Z,1017.50
2018-05-04T06:58:19.830Z,1017.50
2018-05-04T06:59:21.237Z,1017.48
2018-05-04T07:00:22.598Z,1017.53
2018-05-04T07:01:24.007Z,1017.57
2018-05-04T07:02:25.415Z,1017.49
2018-05-04T07:03:26.819Z,1017.54
2018-05-04T07:04:28.219Z,1017.53
2018-05-04T07:05:29.642Z,1017.52
2018-05-04T07:06:31.044Z,1017.49
2018-05-04T07:07:32.445Z,1017.55
2018-05-04T07:08:33.864Z,1017.53
2018-05-04T07:09:35.281Z,1017.50
2018-05-04T07:10:36.690Z,1017.51
2018-05-04T07:11:38.093Z,1017.50
2018-05-04T07:12:39.500Z,1017.58
2018-05-04T07:13:40.904Z,1017.54
2018-05-04T07:14:42.312Z,1017.58
2018-05-04T07:15:43.736Z,1017.58
2018-05-04T07:16:45.140Z,1017.60
2018-05-04T07:17:46.554Z,1017.62
2018-05-04T07:18:47.967Z,1017.62
2018-05-04T07:19:49.374Z,1017.55
2018-05-04T07:20:50.776Z,1017.57
2018-05-04T07:21:52.204Z,1017.59
2018-05-04T07:22:53.606Z,1017.57
2018-05-04T07:23:55.013Z,1017.60
2018-05-04T07:24:56.418Z,1017.66
2018-05-04T07:25:57.848Z,1017.65
2018-05-04T07:26:59.261Z,1017.64
2018-05-04T07:28:00.669Z,1017.70
2018-05-04T07:29:02.097Z,1017.65
2018-05-04T07:30:03.525Z,1017.65
2018-05-04T07:31:04.923Z,1017.69
2018-05-04T07:32:06.338Z,1017.71
2018-05-04T07:33:07.743Z,1017.74
2018-05-04T07:34:09.154Z,1017.74
2018-05-04T07:35:10.576Z,1017.76
2018-05-04T07:36:11.992Z,1017.73
2018-05-04T07:37:13.396Z,1017.77
2018-05-04T07:38:14.814Z,1017.82
2018-05-04T07:39:16.232Z,1017.80
2018-05-04T07:40:17.648Z,1017.86
2018-05-04T07:41:19.057Z,1017.82
2018-05-04T07:42:20.477Z,1017.79
2018-05-04T07:43:21.895Z,1017.79
2018-05-04T07:44:23.298Z,1017.79
2018-05-04T07:45:24.699Z,1017.82
2018-05-04T07:46:26.149Z,1017.83
2018-05-04T07:47:27.604Z,1017.85
2018-05-04T07:48:29.022Z,1017.86
2018-05-04T07:49:30.442Z,1017.89
2018-05-04T07:50:31.856Z,1017.91
2018-05-04T07:51:34.146Z,1017.86
2018-05-04T07:52:35.554Z,1017.84
2018-05-04T07:53:36.960Z,1017.90
2018-05-04T07:54:38.381Z,1017.87
2018-05-04T07:55:39.801Z,1017.88
2018-05-04T07:56:41.220Z,1017.89
2018-05-04T07:57:42.616Z,1017.86
2018-05-04T07:58:44.031Z,1017.86
2018-05-04T07:59:45.449Z,1017.87
2018-05-04T08:00:46.857Z,1017.89
2018-05-04T08:01:48.285Z,1017.86
2018-05-04T08:02:49.726Z,1017.88
2018-05-04T08:03:51.115Z,1017.92
2018-05-04T08:04:52.527Z,1017.93
2018-05-04T08:05:53.950Z,1017.97
2018-05-04T08:06:55.368Z,1017.97
2018-05-04T08:07:56.790Z,1017.99
2018-05-04T08:08:58.188Z,1017.92
2018-05-04T08:09:59.601Z,1017.94
2018-05-04T08:11:01.026Z,1017.98
2018-05-04T08:12:02.434Z,1017.98
2018-05-04T08:13:03.841Z,1017.99
2018-05-04T08:14:05.261Z,1017.99
2018-05-04T08:15:06.684Z,1017.99
2018-05-04T08:16:08.102Z,1018.04
2018-05-04T08:17:09.597Z,1018.05
2018-05-04T08:18:11.539Z,1018.04
2018-05-04T08:19:12.952Z,1018.05
2018-05-04T08:20:14.378Z,1018.05
2018-05-04T08:21:15.788Z,1018.05
2018-05-04T08:22:17.206Z,1018.10
2018-05-04T08:23:18.624Z,1018.09
2018-05-04T08:24:20.027Z,1018.08
2018-05-04T08:25:21.431Z,1018.11
2018-05-04T08:26:22.850Z,1018.08
2018-05-04T08:27:24.330Z,1018.11
2018-05-04T08:28:25.697Z,1018.08
2018-05-04T08:29:27.104Z,1018.08
2018-05-04T08:30:28.542Z,1018.05
2018-05-04T08:31:29.953Z,1018.08
2018-05-04T08:32:31.373Z,1018.07
2018-05-04T08:33:32.785Z,1018.08
2018-05-04T08:34:34.217Z,1018.07
2018-05-04T08:35:35.639Z,1018.06
2018-05-04T08:36:37.059Z,1018.08
2018-05-04T08:37:38.467Z,1018.07
2018-05-04T08:38:39.897Z,1018.05
2018-05-04T08:39:41.324Z,1018.03
2018-05-04T08:40:43.048Z,1018.10
2018-05-04T08:41:44.165Z,1018.08
2018-05-04T08:42:45.592Z,1018.08
2018-05-04T08:43:46.994Z,1018.06
2018-05-04T08:44:48.412Z,1018.04
2018-05-04T08:45:49.827Z,1018.08
2018-05-04T08:46:51.368Z,1018.04
2018-05-04T08:47:52.619Z,1018.08
2018-05-04T08:48:54.715Z,1018.04
2018-05-04T08:49:56.136Z,1018.01
2018-05-04T08:50:58.084Z,1018.03
2018-05-04T08:51:59.484Z,1018.05
2018-05-04T08:53:00.898Z,1018.06
2018-05-04T08:54:02.359Z,1018.02
2018-05-04T08:55:03.780Z,1017.99
2018-05-04T08:56:05.198Z,1018.01
2018-05-04T08:57:06.684Z,1017.97
2018-05-04T08:58:08.037Z,1017.93
2018-05-04T08:59:09.455Z,1017.94
2018-05-04T09:00:10.901Z,1018.01
2018-05-04T09:01:12.311Z,1017.98
2018-05-04T09:02:13.736Z,1017.98
2018-05-04T09:03:15.195Z,1017.98
2018-05-04T09:04:16.606Z,1018.00
2018-05-04T09:05:18.091Z,1018.00
2018-05-04T09:06:19.451Z,1017.96
2018-05-04T09:07:20.869Z,1017.96
2018-05-04T09:08:22.285Z,1017.95
2018-05-04T09:09:23.705Z,1017.97
2018-05-04T09:10:25.122Z,1017.94
2018-05-04T09:11:26.542Z,1017.98
2018-05-04T09:12:27.960Z,1017.96
2018-05-04T09:13:29.376Z,1018.00
2018-05-04T09:14:30.795Z,1018.02
2018-05-04T09:15:32.280Z,1018.00
2018-05-04T09:16:33.692Z,1018.00
2018-05-04T09:17:35.104Z,1018.06
2018-05-04T09:18:36.528Z,1018.03
2018-05-04T09:19:37.942Z,1018.01
2018-05-04T09:20:39.374Z,1018.00
2018-05-04T09:21:40.790Z,1017.99
2018-05-04T09:22:42.205Z,1017.99
2018-05-04T09:23:43.645Z,1018.02
2018-05-04T09:24:45.061Z,1018.02
2018-05-04T09:25:46.475Z,1018.02
2018-05-04T09:26:47.896Z,1018.01
2018-05-04T09:27:49.329Z,1018.02
2018-05-04T09:28:50.741Z,1018.00
2018-05-04T09:29:52.191Z,1018.00
2018-05-04T09:30:53.632Z,1017.98
2018-05-04T09:31:55.038Z,1018.02
2018-05-04T09:32:56.499Z,1017.94
2018-05-04T09:33:57.912Z,1017.91
2018-05-04T09:34:59.320Z,1017.92
2018-05-04T09:36:00.752Z,1017.94
2018-05-04T09:37:02.155Z,1017.88
2018-05-04T09:38:03.578Z,1017.91
2018-05-04T09:39:05.000Z,1017.92
2018-05-04T09:40:06.408Z,1017.93
2018-05-04T09:41:07.825Z,1017.92
2018-05-04T09:42:09.232Z,1017.96
2018-05-04T09:43:10.664Z,1018.00
2018-05-04T09:44:12.072Z,1017.97
2018-05-04T09:45:13.483Z,1017.99
2018-05-04T09:46:14.898Z,1017.97
2018-05-04T09:47:16.405Z,1017.93
2018-05-04T09:48:17.741Z,1017.95
2018-05-04T09:49:19.152Z,1017.89
2018-05-04T09:50:20.571Z,1017.92
2018-05-04T09:51:21.988Z,1017.89
2018-05-04T09:52:23.405Z,1017.93
2018-05-04T09:53:24.815Z,1017.92
2018-05-04T09:54:26.231Z,1017.92
2018-05-04T09:55:27.651Z,1017.92
2018-05-04T09:56:29.070Z,1017.91
2018-05-04T09:57:30.487Z,1017.91
2018-05-04T09:58:32.615Z,1017.93
2018-05-04T09:59:34.030Z,1017.93
2018-05-04T10:00:35.449Z,1017.91
2018-05-04T10:01:36.864Z,1017.91
2018-05-04T10:02:38.293Z,1017.88
2018-05-04T10:03:39.763Z,1017.90
2018-05-04T10:04:41.144Z,1017.88
2018-05-04T10:05:42.548Z,1017.88
2018-05-04T10:06:43.972Z,1017.87
2018-05-04T10:07:45.385Z,1017.84
2018-05-04T10:08:46.866Z,1017.84
2018-05-04T10:09:48.294Z,1017.87
2018-05-04T10:10:49.711Z,1017.89
2018-05-04T10:11:51.151Z,1017.89
2018-05-04T10:12:52.547Z,1017.91
2018-05-04T10:13:53.959Z,1017.93
2018-05-04T10:14:55.373Z,1017.92
2018-05-04T10:15:56.793Z,1017.88
2018-05-04T10:16:58.206Z,1017.79
2018-05-04T10:17:59.613Z,1017.81
2018-05-04T10:19:01.029Z,1017.73
2018-05-04T10:20:02.439Z,1017.70
2018-05-04T10:21:03.846Z,1017.71
2018-05-04T10:22:05.252Z,1017.63
2018-05-04T10:23:06.660Z,1017.62
2018-05-04T10:24:08.055Z,1017.59
2018-05-04T10:25:09.469Z,1017.57
2018-05-04T10:26:10.897Z,1017.60
2018-05-04T10:27:12.286Z,1017.61
2018-05-04T10:28:13.685Z,1017.58
2018-05-04T10:29:15.094Z,1017.62
2018-05-04T10:30:16.498Z,1017.57
2018-05-04T10:31:17.952Z,1017.60
2018-05-04T10:32:19.341Z,1017.59
2018-05-04T10:33:20.751Z,1017.67
2018-05-04T10:34:22.162Z,1017.64
2018-05-04T10:35:23.570Z,1017.66
2018-05-04T10:36:24.972Z,1017.69
2018-05-04T10:37:26.382Z,1017.63
2018-05-04T10:38:27.823Z,1017.63
2018-05-04T10:39:29.196Z,1017.62
2018-05-04T10:40:30.592Z,1017.62
2018-05-04T10:41:32.000Z,1017.59
2018-05-04T10:42:33.396Z,1017.59
2018-05-04T10:43:34.813Z,1017.58
2018-05-04T10:44:36.228Z,1017.60
2018-05-04T10:45:37.639Z,1017.61
2018-05-04T10:46:39.030Z,1017.55
2018-05-04T10:47:40.491Z,1017.63
2018-05-04T10:48:41.857Z,1017.63
2018-05-04T10:49:43.261Z,1017.57
2018-05-04T10:50:44.659Z,1017.54
2018-05-04T10:51:46.057Z,1017.60
2018-05-04T10:52:47.461Z,1017.60
2018-05-04T10:53:48.871Z,1017.59
2018-05-04T10:54:50.283Z,1017.66
2018-05-04T10:55:51.685Z,1017.64
2018-05-04T10:56:53.078Z,1017.62
2018-05-04T10:57:54.491Z,1017.61
2018-05-04T10:58:55.899Z,1017.62
2018-05-04T10:59:57.299Z,1017.65
2018-05-04T11:00:58.694Z,1017.63
2018-05-04T11:02:00.096Z,1017.67
2018-05-04T11:03:01.510Z,1017.65
2018-05-04T11:04:02.906Z,1017.67
2018-05-04T11:05:04.343Z,1017.64
2018-05-04T11:06:05.728Z,1017.66
2018-05-04T11:07:07.126Z,1017.72
2018-05-04T11:08:08.533Z,1017.71
2018-05-04T11:09:09.935Z,1017.70
2018-05-04T11:10:11.345Z,1017.74
2018-05-04T11:11:12.755Z,1017.75
2018-05-04T11:12:14.177Z,1017.70
2018-05-04T11:13:15.584Z,1017.70
2018-05-04T11:14:16.996Z,1017.68
2018-05-04T11:15:18.394Z,1017.69
2018-05-04T11:16:19.817Z,1017.67
2018-05-04T11:17:21.217Z,1017.59
2018-05-04T11:18:24.351Z,1017.61
2018-05-04T11:19:25.825Z,1017.62
2018-05-04T11:20:27.172Z,1017.63
2018-05-04T11:21:28.593Z,1017.54
2018-05-04T11:22:29.993Z,1017.59
2018-05-04T11:23:31.403Z,1017.63
2018-05-04T11:24:32.798Z,1017.58
2018-05-04T11:25:34.217Z,1017.54
2018-05-04T11:26:35.635Z,1017.59
2018-05-04T11:27:37.040Z,1017.64
2018-05-04T11:28:38.470Z,1017.68
2018-05-04T11:29:39.869Z,1017.64
2018-05-04T11:30:41.295Z,1017.66
2018-05-04T11:31:42.708Z,1017.66
2018-05-04T11:32:44.117Z,1017.65
2018-05-04T11:33:45.525Z,1017.63
2018-05-04T11:34:46.930Z,1017.70
2018-05-04T11:35:48.335Z,1017.69
2018-05-04T11:36:49.742Z,1017.64
2018-05-04T11:37:51.154Z,1017.68
2018-05-04T11:38:52.664Z,1017.74
2018-05-04T11:39:53.970Z,1017.69
2018-05-04T11:40:55.376Z,1017.70
2018-05-04T11:41:56.786Z,1017.72
2018-05-04T11:42:58.178Z,1017.66
2018-05-04T11:43:59.665Z,1017.62
2018-05-04T11:45:01.076Z,1017.66
2018-05-04T11:46:02.482Z,1017.69
2018-05-04T11:47:03.923Z,1017.72
2018-05-04T11:48:05.320Z,1017.67
2018-05-04T11:49:06.723Z,1017.62
2018-05-04T11:50:08.138Z,1017.69
2018-05-04T11:51:09.543Z,1017.65
2018-05-04T11:52:10.935Z,1017.64
2018-05-04T11:53:12.352Z,1017.66
2018-05-04T11:54:13.769Z,1017.67
2018-05-04T11:55:15.186Z,1017.68
2018-05-04T11:56:16.542Z,1017.65
2018-05-04T11:57:17.944Z,1017.63
2018-05-04T11:58:19.373Z,1017.67
2018-05-04T11:59:20.720Z,1017.67
2018-05-04T12:00:22.126Z,1017.68
2018-05-04T12:01:23.541Z,1017.71
2018-05-04T12:02:25.045Z,1017.70
2018-05-04T12:03:26.364Z,1017.71
2018-05-04T12:04:27.790Z,1017.67
2018-05-04T12:05:29.187Z,1017.63
2018-05-04T12:06:30.612Z,1017.65
2018-05-04T12:07:32.018Z,1017.62
2018-05-04T12:08:33.453Z,1017.61
2018-05-04T12:09:34.854Z,1017.60
2018-05-04T12:10:36.244Z,1017.61
2018-05-04T12:11:37.647Z,1017.62
2018-05-04T12:12:39.705Z,1017.67
2018-05-04T12:13:41.056Z,1017.67
2018-05-04T12:14:42.474Z,1017.71
2018-05-04T12:15:43.881Z,1017.73
2018-05-04T12:16:45.279Z,1017.67
2018-05-04T12:17:46.682Z,1017.65
2018-05-04T12:18:48.084Z,1017.66
2018-05-04T12:19:49.492Z,1017.62
2018-05-04T12:20:50.923Z,1017.59
2018-05-04T12:21:52.979Z,1017.64
2018-05-04T12:22:54.385Z,1017.62